Time;durP1;ratioP1;P1;durP2;ratioP2;P2;SDS_P1;SDS_P2;PMS_P1;PMS_P2;Temp;Humidity;BMP_temperature;BMP_pressure;BME280_temperature;BME280_humidity;BME280_pressure;Samples;Min_cycle;Max_cycle;Signal;HPM_P1;HPM_P2
2023/11/12 00:01:02;;;;;;;1.50;1.40;;;;;;;21.15;32.49;99532.53;4525009;28;20028;-66
2023/11/12 00:03:12;;;;;;;1.70;1.60;;;;;;;21.12;32.29;99523.88;4522420;28;20041;-66
2023/11/12 00:05:23;;;;;;;1.52;1.42;;;;;;;21.13;32.46;99519.78;4523618;28;20041;-66
2023/11/12 00:07:33;;;;;;;1.30;1.20;;;;;;;21.12;32.51;99518.13;4521281;28;20021;-66
2023/11/12 00:09:44;;;;;;;1.50;1.40;;;;;;;21.13;32.42;99517.75;4522024;28;20491;-66
2023/11/12 00:11:55;;;;;;;2.10;1.50;;;;;;;21.13;32.16;99520.59;4507360;28;20096;-67
2023/11/12 00:14:06;;;;;;;1.45;1.35;;;;;;;21.15;32.46;99525.94;4521778;28;20175;-66
2023/11/12 00:16:16;;;;;;;1.50;1.40;;;;;;;21.09;32.36;99519.72;4521362;28;20080;-66
2023/11/12 00:18:27;;;;;;;1.40;1.30;;;;;;;21.14;32.61;99525.13;4523083;28;20044;-66
2023/11/12 00:20:37;;;;;;;1.55;1.45;;;;;;;21.11;32.61;99522.22;4522163;28;20038;-66
2023/11/12 00:22:48;;;;;;;1.85;1.30;;;;;;;21.12;32.37;99518.13;4505991;28;20045;-67
2023/11/12 00:24:58;;;;;;;1.63;1.52;;;;;;;21.14;32.50;99522.25;4524097;28;20405;-67
2023/11/12 00:27:08;;;;;;;1.77;1.50;;;;;;;21.10;32.25;99518.53;4522191;28;20061;-66
2023/11/12 00:29:19;;;;;;;1.58;1.48;;;;;;;21.13;32.40;99529.22;4494908;28;20121;-66
2023/11/12 00:31:29;;;;;;;2.03;1.50;;;;;;;21.10;32.43;99514.84;4523892;28;20850;-66
2023/11/12 00:33:40;;;;;;;1.33;1.23;;;;;;;21.07;32.62;99513.59;4511094;28;20049;-66
2023/11/12 00:35:51;;;;;;;1.52;1.40;;;;;;;21.12;32.68;99521.81;4525163;28;20530;-66
2023/11/12 00:38:02;;;;;;;1.75;1.60;;;;;;;21.12;32.74;99524.69;4503429;28;20552;-66
2023/11/12 00:40:14;;;;;;;1.50;1.40;;;;;;;21.11;32.48;99522.22;4524187;28;20038;-66
2023/11/12 00:42:24;;;;;;;1.63;1.50;;;;;;;21.07;32.45;99521.38;4521969;28;20819;-66
2023/11/12 00:44:35;;;;;;;1.75;1.50;;;;;;;21.07;32.86;99522.19;4503984;28;20031;-66
2023/11/12 00:46:45;;;;;;;1.58;1.48;;;;;;;21.11;32.69;99528.78;4521875;28;21201;-66
2023/11/12 00:48:57;;;;;;;2.13;1.50;;;;;;;21.08;32.94;99526.72;4523122;28;20047;-66
2023/11/12 00:51:08;;;;;;;1.70;1.60;;;;;;;21.12;32.37;99523.88;4503535;28;20612;-66
2023/11/12 00:53:19;;;;;;;1.70;1.60;;;;;;;21.11;32.51;99523.03;4522562;28;20401;-66
2023/11/12 00:55:30;;;;;;;1.67;1.58;;;;;;;21.10;32.79;99523.44;4523116;28;20037;-66
2023/11/12 00:57:40;;;;;;;1.85;1.70;;;;;;;21.09;32.65;99519.72;4522089;28;20534;-67
2023/11/12 00:59:50;;;;;;;1.70;1.60;;;;;;;21.09;32.41;99519.72;4504728;28;20455;-66
2023/11/12 01:02:01;;;;;;;1.83;1.73;;;;;;;21.09;32.71;99519.72;4505689;28;20049;-66
2023/11/12 01:04:11;;;;;;;1.70;1.60;;;;;;;21.10;32.49;99521.41;4524688;28;20060;-66
2023/11/12 01:06:22;;;;;;;1.98;1.77;;;;;;;21.11;32.85;99525.06;4506834;28;20030;-66
2023/11/12 01:08:34;;;;;;;2.22;1.60;;;;;;;21.06;32.32;99520.53;4506989;28;20692;-66
2023/11/12 01:10:44;;;;;;;2.00;1.83;;;;;;;21.06;32.83;99514.78;4525735;28;20928;-67
2023/11/12 01:12:55;;;;;;;1.90;1.70;;;;;;;21.11;32.50;99523.03;4524926;28;20056;-66
2023/11/12 01:15:06;;;;;;;1.70;1.50;;;;;;;21.04;32.49;99507.81;4510988;28;20034;-67
2023/11/12 01:17:16;;;;;;;1.70;1.60;;;;;;;21.07;32.61;99507.84;4524035;28;20550;-66
2023/11/12 01:19:27;;;;;;;1.60;1.50;;;;;;;21.10;33.00;99515.66;4525347;28;20030;-66
2023/11/12 01:21:37;;;;;;;1.95;1.80;;;;;;;21.06;32.89;99503.31;4505112;28;20041;-66
2023/11/12 01:23:47;;;;;;;1.52;1.40;;;;;;;21.07;32.48;99513.59;4509316;28;20017;-66
2023/11/12 01:25:58;;;;;;;2.60;1.80;;;;;;;21.09;32.75;99508.25;4506509;28;20049;-66
2023/11/12 01:28:10;;;;;;;1.70;1.60;;;;;;;20.97;32.78;99494.22;4510994;28;20033;-66
2023/11/12 01:30:22;;;;;;;1.90;1.70;;;;;;;21.11;32.60;99510.72;4524702;28;20095;-66
2023/11/12 01:32:33;;;;;;;1.63;1.52;;;;;;;21.04;32.81;99502.09;4524275;28;20878;-66
2023/11/12 01:34:44;;;;;;;1.58;1.45;;;;;;;21.09;32.46;99508.25;4525566;28;20041;-66
2023/11/12 01:36:54;;;;;;;1.77;1.60;;;;;;;21.02;32.90;99488.13;4507204;28;20026;-66
2023/11/12 01:39:07;;;;;;;3.00;1.70;;;;;;;21.09;32.57;99499.66;4525535;28;20049;-66
2023/11/12 01:41:18;;;;;;;1.77;1.67;;;;;;;21.02;32.53;99487.31;4514378;28;20034;-66
2023/11/12 01:43:30;;;;;;;1.50;1.40;;;;;;;21.08;32.88;99492.28;4524450;28;20049;-66
2023/11/12 01:45:40;;;;;;;1.75;1.52;;;;;;;21.09;32.47;99493.91;4528908;28;20053;-66
2023/11/12 01:47:51;;;;;;;1.70;1.60;;;;;;;21.06;32.77;99486.09;4524049;28;20068;-66
2023/11/12 01:50:03;;;;;;;1.90;1.70;;;;;;;21.07;32.49;99493.50;4504164;28;20123;-66
2023/11/12 01:52:17;;;;;;;2.13;1.60;;;;;;;21.07;32.65;99493.50;4514506;28;20025;-66
2023/11/12 01:54:29;;;;;;;1.77;1.67;;;;;;;21.05;32.57;99490.22;4508514;28;20045;-66
2023/11/12 01:56:40;;;;;;;1.55;1.45;;;;;;;21.04;32.51;99482.81;4523552;28;20864;-66
2023/11/12 01:58:52;;;;;;;1.80;1.70;;;;;;;21.06;32.51;99476.69;4507107;28;21426;-66
2023/11/12 02:01:03;;;;;;;1.83;1.67;;;;;;;21.03;32.75;99474.59;4509042;28;20034;-66
2023/11/12 02:03:16;;;;;;;1.80;1.70;;;;;;;21.05;32.79;99478.72;4503143;28;20030;-66
2023/11/12 02:05:28;;;;;;;1.70;1.60;;;;;;;21.06;32.50;99474.63;4522883;28;20196;-66
2023/11/12 02:07:42;;;;;;;1.90;1.73;;;;;;;21.06;32.33;99480.38;4506107;28;20025;-66
2023/11/12 02:10:04;;;;;;;1.92;1.80;;;;;;;21.06;32.32;99477.50;4503986;28;20141;-67
2023/11/12 02:12:16;;;;;;;1.70;1.60;;;;;;;21.05;32.34;99480.75;4522832;28;20800;-66
2023/11/12 02:14:30;;;;;;;1.67;1.58;;;;;;;21.04;32.65;99465.59;4508334;28;20465;-66
2023/11/12 02:16:40;;;;;;;1.92;1.70;;;;;;;21.05;32.30;99473.00;4523857;28;20037;-66
2023/11/12 02:18:51;;;;;;;1.90;1.70;;;;;;;21.04;32.40;99473.41;4510929;28;20042;-67
2023/11/12 02:21:04;;;;;;;1.60;1.50;;;;;;;21.05;32.64;99473.00;4523527;28;20065;-66
2023/11/12 02:23:15;;;;;;;1.98;1.77;;;;;;;21.07;32.62;99475.47;4523508;28;20472;-66
2023/11/12 02:25:25;;;;;;;2.05;1.83;;;;;;;21.03;32.88;99469.69;4494774;28;20085;-66
2023/11/12 02:27:37;;;;;;;1.65;1.55;;;;;;;21.05;32.40;99475.03;4507215;28;20077;-66
2023/11/12 02:29:49;;;;;;;1.67;1.58;;;;;;;21.07;32.57;99475.47;4522938;28;20048;-66
2023/11/12 02:31:59;;;;;;;1.80;1.70;;;;;;;21.04;32.38;99477.06;4504781;28;20034;-66
2023/11/12 02:34:10;;;;;;;1.95;1.70;;;;;;;21.04;32.60;99474.19;4512146;28;20049;-67
2023/11/12 02:36:25;;;;;;;2.00;1.80;;;;;;;21.03;32.76;99475.44;4524642;28;20107;-66
2023/11/12 02:38:35;;;;;;;1.73;1.63;;;;;;;21.05;32.31;99473.00;4504777;28;20908;-66
2023/11/12 02:40:46;;;;;;;2.10;1.90;;;;;;;21.04;32.34;99461.91;4522658;28;20041;-66
2023/11/12 02:42:57;;;;;;;2.55;2.10;;;;;;;20.98;32.52;99457.78;4524326;28;20032;-66
2023/11/12 02:45:10;;;;;;;1.85;1.73;;;;;;;21.00;32.37;99452.44;4506723;28;20573;-66
2023/11/12 02:47:21;;;;;;;1.92;1.70;;;;;;;21.03;32.78;99463.94;4506096;28;20053;-66
2023/11/12 02:50:03;;;;;;;2.00;1.73;;;;;;;21.04;32.50;99456.97;4523894;28;20121;-66
2023/11/12 02:52:15;;;;;;;2.58;2.03;;;;;;;20.99;32.49;99448.78;4522993;28;20079;-66
2023/11/12 02:54:25;;;;;;;2.22;2.00;;;;;;;21.03;32.20;99452.47;4509234;28;20038;-66
2023/11/12 02:56:36;;;;;;;1.85;1.73;;;;;;;21.01;32.41;99454.91;4506003;28;20207;-66
2023/11/12 02:58:48;;;;;;;2.10;1.90;;;;;;;21.04;32.00;99456.19;4506468;28;20048;-66
2023/11/12 03:00:58;;;;;;;2.03;1.67;;;;;;;21.03;32.17;99458.22;4506759;28;20097;-67
2023/11/12 03:03:12;;;;;;;1.80;1.70;;;;;;;21.02;32.04;99450.84;4508563;28;20128;-68
2023/11/12 03:05:24;;;;;;;2.00;1.80;;;;;;;21.04;32.16;99459.03;4495579;28;20395;-66
2023/11/12 03:07:35;;;;;;;1.88;1.73;;;;;;;20.95;32.14;99447.88;4509552;28;20766;-66
2023/11/12 03:09:47;;;;;;;1.98;1.75;;;;;;;21.01;32.18;99460.66;4523200;28;20021;-66
2023/11/12 03:11:57;;;;;;;2.00;1.80;;;;;;;21.01;31.99;99472.13;4524207;28;20044;-66
2023/11/12 03:14:08;;;;;;;2.13;1.70;;;;;;;20.96;31.64;99469.66;4523156;28;20052;-66
2023/11/12 03:16:20;;;;;;;1.70;1.60;;;;;;;21.03;31.67;99474.59;4492637;28;20026;-66
2023/11/12 03:18:30;;;;;;;1.83;1.67;;;;;;;21.01;31.46;99477.06;4521989;28;20040;-66
2023/11/12 03:20:40;;;;;;;2.13;1.92;;;;;;;21.02;31.49;99478.69;4522719;28;20533;-67
2023/11/12 03:22:53;;;;;;;1.90;1.80;;;;;;;21.01;31.50;99486.47;4522422;28;20021;-68
2023/11/12 03:25:05;;;;;;;2.13;1.92;;;;;;;20.98;31.30;99484.41;4523757;28;20037;-66
2023/11/12 03:27:16;;;;;;;1.90;1.80;;;;;;;21.01;31.23;99477.84;4506098;28;20586;-66
2023/11/12 03:29:26;;;;;;;2.38;1.83;;;;;;;21.03;30.94;99481.16;4522536;28;20038;-66
2023/11/12 03:31:38;;;;;;;2.00;1.80;;;;;;;21.03;31.08;99488.94;4508972;28;20045;-66
2023/11/12 03:33:48;;;;;;;2.10;1.90;;;;;;;21.01;31.13;99483.59;4521104;28;20041;-67
2023/11/12 03:35:59;;;;;;;1.92;1.63;;;;;;;21.02;31.22;99482.41;4523791;28;20033;-66
2023/11/12 03:38:10;;;;;;;1.70;1.60;;;;;;;20.95;31.18;99470.81;4503011;28;20034;-66
2023/11/12 03:40:20;;;;;;;2.20;1.98;;;;;;;20.98;30.88;99469.25;4523937;28;20038;-67
2023/11/12 03:42:31;;;;;;;1.90;1.80;;;;;;;20.93;31.04;99461.78;4497307;28;20049;-67
2023/11/12 03:44:43;;;;;;;2.05;1.73;;;;;;;21.01;30.96;99477.84;4482185;28;20034;-66
2023/11/12 03:46:54;;;;;;;1.92;1.73;;;;;;;20.95;31.10;99470.81;4522018;28;20091;-66
2023/11/12 03:49:04;;;;;;;1.73;1.63;;;;;;;21.02;31.09;99479.53;4522487;28;20033;-66
2023/11/12 03:51:15;;;;;;;1.92;1.70;;;;;;;20.98;31.36;99466.38;4522732;28;20505;-66
2023/11/12 03:53:25;;;;;;;2.10;1.80;;;;;;;21.00;31.03;99473.34;4522597;28;20034;-67
2023/11/12 03:55:36;;;;;;;2.30;1.83;;;;;;;21.01;31.09;99469.25;4503847;28;20046;-66
2023/11/12 03:57:46;;;;;;;1.55;1.45;;;;;;;20.99;31.41;99470.88;4504947;28;20123;-66
2023/11/12 03:59:56;;;;;;;1.90;1.80;;;;;;;20.97;31.11;99468.41;4521811;28;20124;-66
2023/11/12 04:02:07;;;;;;;2.00;1.80;;;;;;;20.99;31.36;99468.84;4522323;28;20026;-66
2023/11/12 04:04:17;;;;;;;2.70;1.83;;;;;;;20.96;31.03;99465.91;4504684;28;20042;-66
2023/11/12 04:06:28;;;;;;;1.70;1.60;;;;;;;21.01;30.88;99477.06;4504309;28;20943;-66
2023/11/12 04:08:38;;;;;;;1.85;1.75;;;;;;;20.99;30.75;99468.84;4522180;28;20029;-66
2023/11/12 04:10:48;;;;;;;1.85;1.75;;;;;;;20.97;31.24;99471.28;4508626;28;20081;-66
2023/11/12 04:12:59;;;;;;;2.08;1.80;;;;;;;20.87;30.83;99443.28;4521591;28;20060;-66
2023/11/12 04:15:09;;;;;;;1.85;1.58;;;;;;;21.00;31.02;99481.97;4523315;28;20172;-66
2023/11/12 04:17:20;;;;;;;2.08;1.88;;;;;;;20.98;30.82;99466.38;4523764;28;20490;-66
2023/11/12 04:19:31;;;;;;;2.70;1.80;;;;;;;20.99;31.11;99476.63;4495671;28;20499;-66
2023/11/12 04:21:45;;;;;;;1.83;1.73;;;;;;;20.99;31.11;99468.00;4507606;28;20046;-66
2023/11/12 04:23:55;;;;;;;2.25;1.80;;;;;;;20.97;30.88;99465.53;4520502;28;20147;-66
2023/11/12 04:26:06;;;;;;;2.13;1.92;;;;;;;20.96;30.95;99463.91;4520534;28;20137;-66
2023/11/12 04:28:16;;;;;;;1.88;1.63;;;;;;;20.99;31.11;99471.72;4504315;28;20094;-66
2023/11/12 04:30:27;;;;;;;1.88;1.70;;;;;;;20.98;31.27;99470.06;4522955;28;20041;-66
2023/11/12 04:32:38;;;;;;;1.70;1.60;;;;;;;20.96;30.71;99463.91;4503885;28;20503;-66
2023/11/12 04:34:49;;;;;;;1.70;1.60;;;;;;;20.95;30.89;99470.81;4523082;28;20033;-67
2023/11/12 04:37:00;;;;;;;2.00;1.80;;;;;;;20.99;30.96;99473.75;4527924;28;20490;-66
2023/11/12 04:39:11;;;;;;;1.90;1.70;;;;;;;20.96;30.64;99472.53;4526441;28;20042;-66
2023/11/12 04:41:21;;;;;;;1.90;1.80;;;;;;;20.97;30.81;99470.44;4498610;28;20023;-66
2023/11/12 04:43:32;;;;;;;1.75;1.65;;;;;;;20.97;31.07;99476.19;4525167;28;20040;-66
2023/11/12 04:45:43;;;;;;;1.80;1.70;;;;;;;20.96;31.04;99472.53;4525567;28;20038;-66
2023/11/12 04:47:53;;;;;;;2.00;1.80;;;;;;;20.97;31.02;99476.19;4506005;28;20633;-66
2023/11/12 04:50:04;;;;;;;1.98;1.80;;;;;;;20.84;30.76;99455.56;4524374;28;20034;-66
2023/11/12 04:52:15;;;;;;;1.88;1.70;;;;;;;20.97;30.74;99477.03;4526422;28;20099;-66
2023/11/12 04:54:26;;;;;;;2.10;1.90;;;;;;;20.97;30.50;99485.63;4525282;28;20068;-66
2023/11/12 04:56:46;;;;;;;1.70;1.60;;;;;;;20.87;30.63;99465.44;4525207;28;20474;-67
2023/11/12 04:58:57;;;;;;;1.60;1.45;;;;;;;20.97;30.71;99481.91;4525588;28;20820;-66
2023/11/12 05:01:07;;;;;;;1.60;1.50;;;;;;;20.84;30.37;99461.28;4508078;28;20041;-67
2023/11/12 05:03:17;;;;;;;1.60;1.50;;;;;;;20.96;30.51;99478.25;4523781;28;20052;-66
2023/11/12 05:05:28;;;;;;;1.70;1.50;;;;;;;20.95;30.72;99476.56;4526082;28;20509;-66
2023/11/12 05:07:38;;;;;;;1.55;1.40;;;;;;;20.95;30.19;99467.94;4524494;28;20034;-66
2023/11/12 05:09:49;;;;;;;2.08;1.88;;;;;;;20.96;30.29;99471.66;4526730;28;20478;-66
2023/11/12 05:11:59;;;;;;;1.70;1.60;;;;;;;20.97;30.55;99471.28;4522911;28;20041;-66
2023/11/12 05:14:10;;;;;;;1.73;1.63;;;;;;;20.96;30.33;99472.53;4497910;28;20053;-66
2023/11/12 05:16:20;;;;;;;2.10;1.90;;;;;;;20.96;30.70;99469.66;4526007;28;20029;-66
2023/11/12 05:18:31;;;;;;;1.70;1.60;;;;;;;20.97;30.20;99477.03;4511274;28;20105;-66
2023/11/12 05:20:42;;;;;;;1.88;1.70;;;;;;;20.89;30.46;99451.50;4524215;28;20443;-66
2023/11/12 05:22:52;;;;;;;2.53;1.80;;;;;;;20.99;29.94;99473.75;4525937;28;20041;-66
2023/11/12 05:25:03;;;;;;;1.77;1.60;;;;;;;20.96;30.10;99475.38;4506499;28;20026;-66
2023/11/12 05:27:13;;;;;;;1.60;1.50;;;;;;;20.96;30.34;99475.38;4524790;28;20040;-66
2023/11/12 05:29:24;;;;;;;1.67;1.58;;;;;;;20.94;30.22;99477.78;4525160;28;20025;-66
2023/11/12 05:31:37;;;;;;;1.80;1.70;;;;;;;20.94;30.20;99489.25;4524660;28;20037;-66
2023/11/12 05:33:48;;;;;;;1.98;1.77;;;;;;;20.96;30.06;99497.47;4522451;28;20076;-66
2023/11/12 05:35:58;;;;;;;1.80;1.70;;;;;;;20.97;30.35;99504.88;4526026;28;20120;-66
2023/11/12 05:38:08;;;;;;;2.05;1.60;;;;;;;20.93;30.07;99493.31;4523840;28;20048;-66
2023/11/12 05:40:19;;;;;;;1.90;1.70;;;;;;;20.96;29.86;99498.34;4524388;28;20025;-67
2023/11/12 05:42:29;;;;;;;1.77;1.67;;;;;;;20.83;30.17;99487.50;4526023;28;20080;-66
2023/11/12 05:44:40;;;;;;;1.55;1.45;;;;;;;20.95;30.22;99502.38;4526683;28;20041;-66
2023/11/12 05:46:50;;;;;;;1.83;1.73;;;;;;;20.90;30.84;99494.13;4522892;28;20026;-67
2023/11/12 05:49:00;;;;;;;1.73;1.60;;;;;;;20.91;30.17;99503.56;4526085;28;20037;-67
2023/11/12 05:51:11;;;;;;;1.75;1.65;;;;;;;20.94;30.48;99506.47;4510656;28;20041;-66
2023/11/12 05:53:21;;;;;;;1.92;1.70;;;;;;;20.96;30.50;99508.94;4521996;28;20597;-67
2023/11/12 05:55:32;;;;;;;2.35;1.70;;;;;;;20.95;30.42;99502.38;4522300;28;20053;-66
2023/11/12 05:57:42;;;;;;;1.77;1.67;;;;;;;20.96;30.84;99503.19;4527271;28;20045;-66
2023/11/12 05:59:53;;;;;;;1.75;1.65;;;;;;;20.83;30.65;99481.78;4526023;28;20047;-66
2023/11/12 06:02:03;;;;;;;2.05;1.80;;;;;;;20.77;30.75;99478.47;4510257;28;20033;-67
2023/11/12 06:04:14;;;;;;;1.92;1.73;;;;;;;20.93;30.75;99501.94;4523092;28;20038;-67
2023/11/12 06:06:25;;;;;;;2.10;1.90;;;;;;;20.93;30.85;99510.53;4523279;28;20552;-66
2023/11/12 06:08:38;;;;;;;1.60;1.50;;;;;;;20.93;30.48;99509.75;4525033;28;20112;-67
2023/11/12 06:10:49;;;;;;;2.03;1.80;;;;;;;20.92;30.50;99514.63;4523081;28;20105;-66
2023/11/12 06:12:59;;;;;;;2.03;1.63;;;;;;;20.93;30.74;99513.41;4522036;28;20133;-66
2023/11/12 06:15:10;;;;;;;1.90;1.73;;;;;;;20.95;30.76;99516.72;4509115;28;20034;-67
2023/11/12 06:17:20;;;;;;;1.83;1.70;;;;;;;20.94;30.46;99523.69;4509236;28;20556;-66
2023/11/12 06:19:30;;;;;;;2.08;1.77;;;;;;;20.93;30.48;99519.16;4522449;28;20034;-66
2023/11/12 06:21:41;;;;;;;1.80;1.70;;;;;;;20.93;30.61;99515.47;4522611;28;20459;-66
2023/11/12 06:23:52;;;;;;;2.28;1.73;;;;;;;20.88;30.51;99519.53;4523623;28;20040;-67
2023/11/12 06:26:02;;;;;;;2.08;1.77;;;;;;;20.93;30.88;99527.75;4522638;28;20033;-66
2023/11/12 06:28:13;;;;;;;1.60;1.50;;;;;;;20.86;30.63;99527.69;4521897;28;20030;-66
2023/11/12 06:30:23;;;;;;;2.10;1.90;;;;;;;20.93;30.87;99527.75;4522306;28;20038;-67
2023/11/12 06:32:39;;;;;;;2.92;2.40;;;;;;;20.94;30.64;99531.44;4522805;28;20406;-66
2023/11/12 06:34:50;;;;;;;2.63;2.40;;;;;;;20.93;31.01;99529.81;4522808;28;20033;-66
2023/11/12 06:37:00;;;;;;;2.97;2.45;;;;;;;20.92;31.13;99526.13;4523420;28;20052;-67
2023/11/12 06:39:14;;;;;;;3.58;2.78;;;;;;;20.94;30.52;99535.16;4521674;28;20033;-66
2023/11/12 06:41:24;;;;;;;3.45;2.97;;;;;;;20.93;30.83;99536.34;4523693;28;20047;-66
2023/11/12 06:43:35;;;;;;;3.13;2.45;;;;;;;20.92;31.09;99528.97;4523574;28;20490;-66
2023/11/12 06:45:46;;;;;;;4.47;3.70;;;;;;;20.93;30.98;99535.56;4522113;28;20502;-66
2023/11/12 06:47:56;;;;;;;4.65;3.10;;;;;;;20.92;30.96;99537.59;4505590;28;20512;-66
2023/11/12 06:50:07;;;;;;;2.83;2.42;;;;;;;20.93;31.29;99539.22;4524014;28;20034;-66
2023/11/12 06:52:17;;;;;;;7.45;4.25;;;;;;;20.92;31.33;99539.63;4522956;28;20121;-66
2023/11/12 06:54:28;;;;;;;6.40;4.28;;;;;;;20.89;31.25;99543.28;4522378;28;20667;-67
2023/11/12 06:56:38;;;;;;;5.13;3.00;;;;;;;20.91;31.29;99544.56;4525026;28;20033;-66
2023/11/12 06:58:48;;;;;;;3.78;2.70;;;;;;;20.91;31.49;99538.81;4508334;28;20034;-67
2023/11/12 07:00:59;;;;;;;2.65;2.15;;;;;;;20.92;31.36;99542.50;4506933;28;20034;-67
2023/11/12 07:03:09;;;;;;;2.00;1.65;;;;;;;20.94;31.68;99545.78;4524519;28;20028;-66
2023/11/12 07:05:20;;;;;;;1.60;1.50;;;;;;;20.92;31.83;99536.75;4523887;28;20044;-67
2023/11/12 07:07:31;;;;;;;1.65;1.52;;;;;;;20.94;31.33;99543.75;4524667;28;20499;-66
2023/11/12 07:09:42;;;;;;;1.58;1.48;;;;;;;20.92;31.50;99551.94;4504792;28;20024;-66
2023/11/12 07:11:52;;;;;;;1.60;1.50;;;;;;;20.92;31.62;99551.94;4522276;28;20029;-66
2023/11/12 07:14:03;;;;;;;2.50;1.75;;;;;;;20.91;31.46;99550.28;4505057;28;20581;-66
2023/11/12 07:16:17;;;;;;;2.78;2.50;;;;;;;20.94;31.58;99558.09;4524941;28;20026;-67
2023/11/12 07:18:28;;;;;;;3.50;3.20;;;;;;;20.90;31.70;99557.22;4523364;28;20659;-66
2023/11/12 07:20:39;;;;;;;4.00;3.10;;;;;;;20.91;31.93;99558.91;4524522;28;20128;-67
2023/11/12 07:22:49;;;;;;;2.60;2.40;;;;;;;20.75;32.07;99538.25;4491327;28;20034;-67
2023/11/12 07:25:00;;;;;;;1.85;1.75;;;;;;;20.89;31.99;99549.00;4521763;28;20044;-66
2023/11/12 07:27:10;;;;;;;1.60;1.50;;;;;;;20.90;32.53;99560.09;4508411;28;20099;-67
2023/11/12 07:29:21;;;;;;;2.10;1.90;;;;;;;20.90;32.38;99562.16;4523405;28;20038;-69
2023/11/12 07:31:32;;;;;;;1.83;1.67;;;;;;;20.87;32.20;99563.75;4522173;28;20642;-67
2023/11/12 07:33:42;;;;;;;1.80;1.70;;;;;;;20.88;32.29;99562.56;4519763;28;20045;-66
2023/11/12 07:35:53;;;;;;;2.05;1.80;;;;;;;20.89;32.33;99558.47;4524085;28;20517;-67
2023/11/12 07:38:04;;;;;;;1.83;1.70;;;;;;;20.85;32.40;99554.75;4521904;28;20053;-66
2023/11/12 07:40:15;;;;;;;1.83;1.60;;;;;;;20.86;32.71;99559.25;4522578;28;20034;-66
2023/11/12 07:42:26;;;;;;;1.90;1.70;;;;;;;20.87;32.43;99566.63;4522435;28;20129;-66
2023/11/12 07:44:36;;;;;;;2.28;2.08;;;;;;;20.86;32.32;99573.59;4522934;28;20209;-66
2023/11/12 07:46:47;;;;;;;1.95;1.80;;;;;;;20.87;32.45;99569.50;4522270;28;20095;-66
2023/11/12 07:48:58;;;;;;;1.70;1.60;;;;;;;20.85;32.04;99571.94;4518801;28;20045;-66
2023/11/12 07:51:08;;;;;;;2.00;1.80;;;;;;;20.82;32.28;99566.16;4524139;28;20113;-66
2023/11/12 07:53:19;;;;;;;1.98;1.77;;;;;;;20.81;32.37;99565.34;4521169;28;20034;-66
2023/11/12 07:55:29;;;;;;;1.70;1.60;;;;;;;20.88;32.27;99576.91;4523080;28;20045;-66
2023/11/12 07:57:40;;;;;;;1.95;1.80;;;;;;;20.87;32.32;99578.09;4521974;28;20479;-66
2023/11/12 07:59:51;;;;;;;2.50;2.30;;;;;;;20.86;32.35;99578.50;4522891;28;20087;-66
2023/11/12 08:02:01;;;;;;;2.80;2.50;;;;;;;20.87;32.96;99580.97;4505236;28;20086;-66
2023/11/12 08:04:12;;;;;;;2.50;2.30;;;;;;;20.86;32.95;99585.06;4523502;28;20436;-66
2023/11/12 08:06:26;;;;;;;2.70;2.40;;;;;;;20.88;32.84;99594.09;4523098;28;20790;-66
2023/11/12 08:08:36;;;;;;;2.10;1.90;;;;;;;20.82;32.63;99584.19;4521420;28;20041;-67
2023/11/12 08:10:47;;;;;;;2.60;2.40;;;;;;;20.78;33.01;99577.59;4523712;28;20044;-67
2023/11/12 08:12:58;;;;;;;2.10;1.90;;;;;;;20.89;32.46;99586.31;4499448;28;20041;-66
2023/11/12 08:15:12;;;;;;;2.40;2.10;;;;;;;20.89;32.88;99598.63;4525800;28;20044;-67
2023/11/12 08:17:23;;;;;;;2.17;1.98;;;;;;;20.88;32.65;99602.72;4508538;28;21388;-66
2023/11/12 08:19:33;;;;;;;2.20;2.00;;;;;;;20.86;32.75;99595.69;4525293;28;20029;-67
2023/11/12 08:21:44;;;;;;;2.95;2.20;;;;;;;20.78;32.62;99584.16;4524554;28;20099;-66
2023/11/12 08:23:54;;;;;;;2.28;2.08;;;;;;;20.80;32.88;99586.63;4526220;28;20116;-67
2023/11/12 08:26:05;;;;;;;2.33;2.13;;;;;;;20.85;33.08;99592.03;4506638;28;20465;-66
2023/11/12 08:28:16;;;;;;;2.28;2.08;;;;;;;20.88;32.99;99616.22;4525739;28;20034;-66
2023/11/12 08:30:27;;;;;;;2.42;2.10;;;;;;;20.89;32.80;99612.94;4508490;28;20486;-66
2023/11/12 08:32:38;;;;;;;2.15;1.95;;;;;;;20.86;32.68;99599.41;4526513;28;20057;-66
2023/11/12 08:34:49;;;;;;;2.42;2.22;;;;;;;20.88;32.59;99604.75;4524246;28;20049;-66
2023/11/12 08:37:00;;;;;;;2.08;1.90;;;;;;;20.85;32.74;99597.75;4505059;28;20022;-66
2023/11/12 08:39:12;;;;;;;2.10;1.90;;;;;;;20.91;32.42;99610.53;4523278;28;20502;-66
2023/11/12 08:41:23;;;;;;;3.03;2.35;;;;;;;20.92;32.58;99612.16;4521723;28;20034;-66
2023/11/12 08:43:33;;;;;;;2.38;2.15;;;;;;;20.88;32.72;99599.84;4523441;28;20037;-68
2023/11/12 08:45:44;;;;;;;2.42;2.20;;;;;;;20.92;32.66;99602.72;4525832;28;20486;-67
2023/11/12 08:47:55;;;;;;;5.47;4.22;;;;;;;20.96;32.28;99613.06;4524607;28;20095;-65
2023/11/12 08:50:06;;;;;;;4.38;3.83;;;;;;;20.94;32.38;99604.00;4525669;28;20104;-65
2023/11/12 08:52:17;;;;;;;2.38;2.17;;;;;;;20.98;32.50;99616.34;4505920;28;20037;-66
2023/11/12 08:54:28;;;;;;;1.85;1.70;;;;;;;20.99;32.11;99611.44;4525792;28;20046;-71
2023/11/12 08:56:39;;;;;;;2.47;2.20;;;;;;;20.92;32.33;99600.69;4498786;28;20030;-68
2023/11/12 08:58:50;;;;;;;2.60;2.40;;;;;;;21.00;32.31;99622.53;4510448;28;20042;-65
2023/11/12 09:01:03;;;;;;;2.72;2.50;;;;;;;21.01;32.04;99618.44;4524026;28;20037;-66
2023/11/12 09:03:14;;;;;;;2.10;1.90;;;;;;;20.97;32.27;99608.97;4512730;22;20625;-65
2023/11/12 09:05:24;;;;;;;1.90;1.80;;;;;;;20.96;32.29;99606.47;4518790;28;20042;-66
2023/11/12 09:07:36;;;;;;;5.53;4.15;;;;;;;20.97;32.30;99611.84;4514464;28;20045;-65
2023/11/12 09:09:47;;;;;;;8.35;6.20;;;;;;;21.01;32.52;99618.44;4513818;28;20889;-66
2023/11/12 09:11:57;;;;;;;9.10;6.47;;;;;;;21.01;32.38;99618.44;4513747;28;20022;-66
2023/11/12 09:14:11;;;;;;;1.48;0.80;;;;;;;21.30;44.99;99625.28;4521955;28;20494;-66
2023/11/12 09:16:21;;;;;;;0.88;0.80;;;;;;;21.47;45.10;99625.44;4516425;28;20037;-66
2023/11/12 09:18:33;;;;;;;6.65;4.65;;;;;;;21.32;34.60;99634.34;4513877;28;20840;-66
2023/11/12 09:20:43;;;;;;;4.03;3.63;;;;;;;21.13;33.33;99629.66;4513356;28;20022;-66
2023/11/12 09:22:54;;;;;;;3.25;2.95;;;;;;;21.07;32.68;99631.22;4511613;28;20829;-65
2023/11/12 09:25:05;;;;;;;2.50;2.30;;;;;;;21.01;32.44;99621.31;4514660;28;20034;-65
2023/11/12 09:27:15;;;;;;;2.97;2.70;;;;;;;21.06;32.14;99638.16;4514883;28;20432;-65
2023/11/12 09:29:28;;;;;;;2.83;2.63;;;;;;;21.05;32.56;99647.16;4513709;28;20022;-65
2023/11/12 09:31:38;;;;;;;2.20;2.00;;;;;;;21.00;32.04;99642.63;4512779;28;20041;-66
2023/11/12 09:33:49;;;;;;;2.00;1.80;;;;;;;20.99;32.78;99635.22;4513613;28;20483;-66
2023/11/12 09:35:59;;;;;;;2.30;2.10;;;;;;;21.00;32.49;99639.75;4511877;28;20034;-65
2023/11/12 09:38:10;;;;;;;1.70;1.60;;;;;;;20.98;32.31;99636.44;4513717;28;20033;-66
2023/11/12 09:40:20;;;;;;;2.35;1.85;;;;;;;20.98;32.68;99642.19;4513644;28;20568;-66
2023/11/12 09:42:31;;;;;;;2.85;2.20;;;;;;;20.99;32.66;99652.44;4512913;28;20030;-65
2023/11/12 09:44:44;;;;;;;2.45;2.25;;;;;;;21.01;32.64;99649.19;4502408;28;20150;-65
2023/11/12 09:47:32;;;;;;;4.13;3.40;;;;;;;20.96;32.53;99644.63;4513164;28;20742;-65
2023/11/12 09:49:42;;;;;;;3.88;3.47;;;;;;;20.99;32.35;99645.88;4506676;28;20050;-65
2023/11/12 09:51:53;;;;;;;3.70;3.22;;;;;;;20.94;32.44;99643.31;4513474;28;20038;-66
2023/11/12 09:54:04;;;;;;;7.05;5.75;;;;;;;20.97;32.26;99646.28;4494244;28;20527;-65
2023/11/12 09:56:14;;;;;;;3.10;2.80;;;;;;;20.94;32.10;99649.91;4513089;28;20030;-65
2023/11/12 09:58:24;;;;;;;3.10;2.90;;;;;;;20.94;32.14;99649.91;4515418;28;20034;-65
2023/11/12 10:00:35;;;;;;;1.80;1.70;;;;;;;20.98;32.07;99655.72;4512938;28;20022;-66
2023/11/12 10:02:46;;;;;;;1.50;1.40;;;;;;;20.97;32.30;99652.00;4520994;28;20049;-66
2023/11/12 10:04:58;;;;;;;2.00;1.50;;;;;;;20.99;32.33;99652.44;4512022;28;20132;-66
2023/11/12 10:07:11;;;;;;;1.90;1.70;;;;;;;21.00;32.42;99659.00;4513993;28;20598;-66
2023/11/12 10:09:28;;;;;;;1.50;1.40;;;;;;;20.98;32.55;99658.59;4528867;28;20047;-66
2023/11/12 10:11:39;;;;;;;2.10;1.90;;;;;;;20.98;32.49;99649.97;4512159;28;20497;-66
2023/11/12 10:13:57;;;;;;;2.05;1.70;;;;;;;20.96;32.33;99650.38;4504614;28;20056;-66
2023/11/12 10:16:25;;;;;;;2.10;1.90;;;;;;;20.97;32.47;99654.88;4513044;28;20186;-66
2023/11/12 10:18:35;;;;;;;;;;;;;;;21.00;32.65;99656.97;4521765;28;20828;-66